Time;durP1;ratioP1;P1;durP2;ratioP2;P2;SDS_P1;SDS_P2;PMS_P1;PMS_P2;Temp;Humidity;BMP_temperature;BMP_pressure;BME280_temperature;BME280_humidity;BME280_pressure;Samples;Min_cycle;Max_cycle;Signal;HPM_P1;HPM_P2
2022/04/11 00:03:23;;;;;;;8.55;7.07;;;;;;;6.67;60.23;100617.66;10234495;28;20051;-61
2022/04/11 00:08:25;;;;;;;7.85;6.90;;;;;;;6.47;60.86;100595.88;10233745;28;20062;-60
2022/04/11 00:13:26;;;;;;;7.88;6.70;;;;;;;6.28;61.81;100585.47;10233902;28;20051;-60
2022/04/11 00:18:28;;;;;;;10.68;6.78;;;;;;;6.29;62.44;100603.06;10227026;28;20061;-61
2022/04/11 00:23:29;;;;;;;9.73;8.07;;;;;;;6.13;62.39;100576.63;10234867;28;20062;-60
2022/04/11 00:28:31;;;;;;;8.55;7.45;;;;;;;6.26;63.05;100605.88;10230381;28;20047;-61
2022/04/11 00:33:32;;;;;;;8.73;7.15;;;;;;;6.34;62.70;100600.16;10232824;28;20055;-60
2022/04/11 00:38:33;;;;;;;9.00;7.88;;;;;;;6.19;62.87;100602.72;10237680;28;20616;-60
2022/04/11 00:43:39;;;;;;;9.30;8.40;;;;;;;5.99;63.05;100564.22;10235093;28;20067;-60
2022/04/11 00:48:41;;;;;;;8.10;7.30;;;;;;;6.11;63.13;100598.78;10247399;28;20042;-59
2022/04/11 00:53:44;;;;;;;8.65;7.18;;;;;;;6.07;63.49;100592.00;10229249;28;20659;-61
2022/04/11 00:58:46;;;;;;;7.75;7.03;;;;;;;5.98;64.07;100585.44;10233639;28;20057;-60
2022/04/11 01:03:48;;;;;;;8.18;7.28;;;;;;;5.87;64.04;100575.44;10230177;28;20073;-60
2022/04/11 01:08:49;;;;;;;7.65;6.72;;;;;;;5.88;64.50;100587.69;10234110;28;20053;-60
2022/04/11 01:13:51;;;;;;;8.07;7.32;;;;;;;5.84;64.54;100592.31;10244765;28;20051;-60
2022/04/11 01:18:53;;;;;;;9.50;7.88;;;;;;;5.80;64.99;100589.91;10241895;28;20043;-59
2022/04/11 01:23:55;;;;;;;8.38;6.97;;;;;;;5.64;65.43;100574.91;10242769;28;20055;-59
2022/04/11 01:28:57;;;;;;;10.05;8.05;;;;;;;5.73;65.56;100588.53;10235700;28;20267;-60
2022/04/11 01:33:58;;;;;;;9.02;8.15;;;;;;;5.68;65.89;100599.38;10235735;28;20042;-61
2022/04/11 01:39:00;;;;;;;9.13;8.20;;;;;;;5.67;65.86;100592.38;10239024;28;20154;-61
2022/04/11 01:44:01;;;;;;;7.60;6.88;;;;;;;5.65;66.01;100584.53;10241609;28;20414;-61
2022/04/11 01:49:02;;;;;;;7.75;6.95;;;;;;;5.63;66.21;100577.63;10236053;28;20757;-60
2022/04/11 01:54:04;;;;;;;7.47;6.78;;;;;;;5.60;66.50;100589.22;10237062;28;20049;-61
2022/04/11 01:59:05;;;;;;;7.97;6.65;;;;;;;5.60;66.76;100583.94;10239718;28;20055;-61
2022/04/11 02:04:07;;;;;;;8.93;7.32;;;;;;;5.37;66.74;100555.28;10231918;28;20121;-61
2022/04/11 02:09:09;;;;;;;7.43;6.72;;;;;;;5.63;66.90;100578.50;10236973;28;20053;-61
2022/04/11 02:14:10;;;;;;;7.72;6.75;;;;;;;5.64;67.00;100587.25;10236122;28;20477;-61
2022/04/11 02:19:11;;;;;;;8.00;7.22;;;;;;;5.70;66.39;100571.06;10235358;28;21024;-60
2022/04/11 02:24:13;;;;;;;8.77;6.90;;;;;;;5.52;66.70;100554.44;10233609;28;20135;-61
2022/04/11 02:29:14;;;;;;;7.53;6.72;;;;;;;5.64;66.76;100555.56;10239509;28;20065;-60
2022/04/11 02:34:15;;;;;;;7.50;6.70;;;;;;;5.62;66.66;100558.28;10234833;28;20691;-61
2022/04/11 02:39:17;;;;;;;8.52;6.55;;;;;;;5.55;66.71;100543.72;10238656;28;20065;-61
2022/04/11 02:44:18;;;;;;;7.60;6.80;;;;;;;5.61;66.91;100561.84;10232499;28;20634;-60
2022/04/11 02:49:19;;;;;;;7.75;6.93;;;;;;;5.53;66.72;100542.94;10237818;28;20043;-61
2022/04/11 02:54:21;;;;;;;6.88;6.22;;;;;;;5.77;66.35;100568.97;10234745;28;20438;-61
2022/04/11 02:59:23;;;;;;;6.82;6.13;;;;;;;5.62;65.91;100538.97;10232785;28;20135;-60
2022/04/11 03:04:24;;;;;;;7.75;6.03;;;;;;;5.63;66.11;100546.78;10231641;28;20042;-61
2022/04/11 03:09:25;;;;;;;7.88;6.25;;;;;;;5.64;65.97;100542.34;10233793;28;20080;-61
2022/04/11 03:14:27;;;;;;;6.50;5.53;;;;;;;5.56;66.19;100537.50;10234995;28;20133;-60
2022/04/11 03:19:29;;;;;;;7.05;6.28;;;;;;;5.64;65.77;100524.75;10231631;28;20061;-60
2022/04/11 03:24:30;;;;;;;5.88;5.38;;;;;;;5.50;66.57;100529.91;10227169;28;20079;-60
2022/04/11 03:29:31;;;;;;;7.82;6.60;;;;;;;5.52;66.78;100533.31;10234065;28;20055;-61
2022/04/11 03:34:33;;;;;;;6.90;6.30;;;;;;;5.51;66.75;100541.31;10233757;28;20590;-60
2022/04/11 03:39:34;;;;;;;8.55;6.22;;;;;;;5.52;66.78;100537.75;10233636;28;20147;-59
2022/04/11 03:44:35;;;;;;;7.25;6.47;;;;;;;5.51;67.15;100536.03;10231881;28;20803;-60
2022/04/11 03:49:37;;;;;;;7.95;6.57;;;;;;;5.50;67.08;100532.56;10237352;28;20141;-59
2022/04/11 03:54:38;;;;;;;8.77;7.05;;;;;;;5.30;67.20;100512.53;10237423;28;20047;-61
2022/04/11 03:59:39;;;;;;;8.10;6.47;;;;;;;5.32;67.38;100526.50;10228590;28;20053;-59
2022/04/11 04:04:41;;;;;;;10.07;6.65;;;;;;;5.29;67.04;100532.78;10229132;28;20848;-60
2022/04/11 04:09:42;;;;;;;7.05;5.53;;;;;;;5.14;67.40;100499.31;10228905;28;20047;-63
2022/04/11 04:14:43;;;;;;;6.22;5.63;;;;;;;5.15;67.52;100508.94;10233886;28;20424;-60
2022/04/11 04:19:45;;;;;;;6.00;5.30;;;;;;;5.06;67.16;100504.13;10232231;28;20093;-60
2022/04/11 04:24:46;;;;;;;6.55;4.60;;;;;;;4.96;67.29;100504.63;10231312;28;20051;-61
2022/04/11 04:29:48;;;;;;;6.10;4.68;;;;;;;5.06;67.31;100518.19;10234115;28;20152;-60
2022/04/11 04:34:49;;;;;;;6.00;5.03;;;;;;;4.85;67.88;100493.81;10233222;28;20062;-61
2022/04/11 04:39:50;;;;;;;5.68;5.03;;;;;;;4.93;67.86;100514.50;10234116;28;20061;-61
2022/04/11 04:44:53;;;;;;;6.97;5.65;;;;;;;4.96;67.87;100504.63;10239951;28;20141;-62
2022/04/11 04:49:54;;;;;;;5.93;5.32;;;;;;;4.94;68.33;100505.66;10241276;28;20053;-61
2022/04/11 04:54:55;;;;;;;6.03;5.43;;;;;;;4.96;68.10;100506.41;10242519;28;20065;-61
2022/04/11 04:59:57;;;;;;;7.03;5.38;;;;;;;4.94;68.31;100505.66;10213782;28;20641;-61
2022/04/11 05:05:03;;;;;;;5.95;5.32;;;;;;;4.91;68.35;100511.09;10230016;28;20502;-61
2022/04/11 05:10:05;;;;;;;7.72;5.03;;;;;;;4.88;68.31;100505.97;10229831;28;20053;-61
2022/04/11 05:15:07;;;;;;;7.03;5.50;;;;;;;4.83;68.12;100498.28;10234403;28;20065;-61
2022/04/11 05:20:09;;;;;;;7.30;5.75;;;;;;;4.96;67.93;100515.19;10224099;28;20055;-63
2022/04/11 05:25:11;;;;;;;5.45;4.70;;;;;;;4.98;67.59;100516.88;10231252;28;20689;-63
2022/04/11 05:30:12;;;;;;;4.38;3.97;;;;;;;4.77;67.24;100493.34;10250077;28;20051;-62
2022/04/11 05:35:13;;;;;;;5.88;5.28;;;;;;;5.03;67.22;100530.69;10238049;28;20165;-61
2022/04/11 05:40:18;;;;;;;5.63;4.53;;;;;;;5.09;67.11;100525.09;10225230;28;20051;-62
2022/04/11 05:45:19;;;;;;;6.47;4.22;;;;;;;5.22;66.43;100534.03;10223997;28;20061;-61
2022/04/11 05:50:21;;;;;;;5.00;4.50;;;;;;;5.32;66.18;100532.63;10227789;28;20077;-60
2022/04/11 05:55:25;;;;;;;6.05;5.18;;;;;;;5.45;65.92;100531.94;10224967;28;20055;-61
2022/04/11 06:00:27;;;;;;;4.80;4.37;;;;;;;5.46;65.48;100512.53;10226488;28;20042;-61
2022/04/11 06:05:28;;;;;;;4.93;4.25;;;;;;;5.61;65.48;100527.53;10228799;28;20051;-61
2022/04/11 06:10:29;;;;;;;6.90;4.30;;;;;;;5.76;65.46;100535.53;10226938;28;20059;-61
2022/04/11 06:15:31;;;;;;;5.93;4.80;;;;;;;6.02;64.10;100536.75;10216104;28;20102;-62
2022/04/11 06:20:32;;;;;;;6.32;5.40;;;;;;;6.14;63.62;100535.19;10222259;28;20061;-63
2022/04/11 06:25:34;;;;;;;7.10;4.53;;;;;;;6.22;63.18;100529.47;10216552;28;20377;-60
2022/04/11 06:30:35;;;;;;;5.55;4.45;;;;;;;6.43;62.55;100544.09;10220098;28;20613;-62
2022/04/11 06:35:36;;;;;;;6.15;4.72;;;;;;;6.60;62.61;100540.44;10222438;28;20061;-61
2022/04/11 06:40:38;;;;;;;5.85;4.63;;;;;;;6.83;61.71;100538.19;10221411;28;20086;-59
2022/04/11 06:45:39;;;;;;;4.78;4.38;;;;;;;6.96;61.05;100517.16;10220159;28;20055;-61
2022/04/11 06:50:40;;;;;;;5.15;4.50;;;;;;;7.30;60.57;100536.25;10219504;28;20058;-60
2022/04/11 06:55:47;;;;;;;4.80;4.32;;;;;;;7.53;59.29;100532.16;10222982;28;20858;-62
2022/04/11 07:00:48;;;;;;;6.40;4.38;;;;;;;7.66;58.46;100519.00;10216055;28;20047;-60
2022/04/11 07:05:50;;;;;;;5.90;3.55;;;;;;;7.87;57.54;100530.00;10221517;28;20051;-61
2022/04/11 07:10:52;;;;;;;4.78;3.75;;;;;;;7.98;58.03;100506.28;10216569;28;20791;-61
2022/04/11 07:15:53;;;;;;;4.68;3.47;;;;;;;8.36;57.50;100521.47;10216901;28;20050;-61
2022/04/11 07:20:56;;;;;;;4.38;3.85;;;;;;;8.63;56.00;100512.59;10218512;28;20064;-60
2022/04/11 07:25:57;;;;;;;5.53;3.75;;;;;;;8.75;54.96;100517.09;10216210;28;20055;-61
2022/04/11 07:30:59;;;;;;;4.15;3.03;;;;;;;9.01;55.04;100506.47;10218842;28;20059;-62
2022/04/11 07:36:08;;;;;;;4.65;4.25;;;;;;;8.88;54.59;100503.81;10217827;28;20065;-61
2022/04/11 07:41:09;;;;;;;5.28;3.65;;;;;;;9.01;54.71;100503.81;10216733;28;20050;-61
2022/04/11 07:46:11;;;;;;;4.97;3.35;;;;;;;9.44;53.55;100508.72;10219382;28;20058;-64
2022/04/11 07:51:12;;;;;;;6.35;3.88;;;;;;;9.72;52.63;100506.75;10216893;28;20121;-61
2022/04/11 07:56:14;;;;;;;5.65;3.75;;;;;;;10.04;51.82;100500.84;10217257;28;20043;-61
2022/04/11 08:01:16;;;;;;;7.07;4.43;;;;;;;10.34;49.70;100508.38;10218209;28;20062;-66
2022/04/11 08:06:18;;;;;;;5.38;4.00;;;;;;;10.48;49.13;100509.16;10217900;28;20047;-62
2022/04/11 08:11:20;;;;;;;6.25;4.47;;;;;;;10.77;49.42;100502.44;10209710;28;20055;-64
2022/04/11 08:16:22;;;;;;;6.05;3.97;;;;;;;10.99;48.32;100502.59;10212660;28;20841;-61
2022/04/11 08:21:24;;;;;;;5.53;5.03;;;;;;;11.05;46.85;100473.66;10211184;28;20051;-62
2022/04/11 08:26:25;;;;;;;5.53;4.13;;;;;;;11.39;45.58;100480.78;10217028;28;20067;-60
2022/04/11 08:31:27;;;;;;;5.28;4.13;;;;;;;11.52;45.53;100462.81;10213002;28;20051;-61
2022/04/11 08:36:28;;;;;;;6.75;3.50;;;;;;;11.82;44.96;100469.28;10218183;28;20061;-61
2022/04/11 08:41:34;;;;;;;5.28;3.58;;;;;;;12.17;43.84;100462.88;10217958;28;20081;-60
2022/04/11 08:46:35;;;;;;;4.28;3.13;;;;;;;12.53;43.34;100448.22;10219348;28;20591;-60
2022/04/11 08:51:37;;;;;;;4.15;3.30;;;;;;;12.90;42.59;100465.59;10220126;28;20202;-60
2022/04/11 08:56:39;;;;;;;3.88;3.08;;;;;;;12.89;41.58;100469.22;10217294;28;20091;-62
2022/04/11 09:01:41;;;;;;;5.25;3.50;;;;;;;13.41;39.34;100464.66;10209922;28;20674;-60
2022/04/11 09:06:54;;;;;;;3.22;2.90;;;;;;;13.72;38.46;100459.25;10221091;28;20043;-63
2022/04/11 09:11:55;;;;;;;6.28;2.83;;;;;;;13.86;38.27;100446.44;10227781;28;20039;-60
2022/04/11 09:16:57;;;;;;;3.13;2.10;;;;;;;14.15;35.69;100417.81;10224050;28;20161;-62
2022/04/11 09:21:58;;;;;;;3.78;1.77;;;;;;;13.99;33.72;100436.31;10215406;28;20545;-63
2022/04/11 09:27:00;;;;;;;4.15;1.83;;;;;;;14.07;34.82;100443.63;10215055;28;20059;-61
2022/04/11 09:32:05;;;;;;;3.78;1.77;;;;;;;14.34;33.55;100424.16;10220043;28;20058;-62
2022/04/11 09:37:08;;;;;;;2.63;1.88;;;;;;;14.94;32.63;100426.53;10233920;28;20057;-62
2022/04/11 09:42:10;;;;;;;2.83;1.50;;;;;;;15.40;31.61;100409.63;10220836;28;20194;-62
2022/04/11 09:47:11;;;;;;;5.40;1.58;;;;;;;15.95;31.74;100414.06;10220785;28;20053;-61
2022/04/11 09:52:14;;;;;;;3.03;1.58;;;;;;;16.23;29.40;100412.13;10219664;28;20182;-62
2022/04/11 09:57:17;;;;;;;1.30;0.88;;;;;;;16.33;27.93;100406.63;10210013;28;20043;-63
2022/04/11 10:02:21;;;;;;;2.72;1.98;;;;;;;16.08;27.44;100395.72;10214492;28;20050;-61
2022/04/11 10:07:23;;;;;;;2.08;1.23;;;;;;;16.29;27.82;100394.50;10213958;28;20133;-60
2022/04/11 10:12:25;;;;;;;3.90;2.05;;;;;;;17.05;27.12;100396.44;10222185;28;20062;-61
2022/04/11 10:17:27;;;;;;;3.05;1.30;;;;;;;17.58;25.10;100380.13;10218476;28;20051;-61
2022/04/11 10:22:33;;;;;;;2.13;1.05;;;;;;;21.04;22.02;100373.69;10219580;28;20419;-61
2022/04/11 10:27:37;;;;;;;3.28;1.38;;;;;;;23.84;19.63;100352.19;10219413;28;20051;-61
2022/04/11 10:32:54;;;;;;;4.15;1.27;;;;;;;24.53;17.81;100339.19;10220424;28;20047;-62
2022/04/11 10:37:55;;;;;;;1.33;1.00;;;;;;;22.28;18.63;100363.66;10215105;28;20541;-61
2022/04/11 10:43:00;;;;;;;3.30;2.03;;;;;;;21.14;21.06;100351.75;10221168;28;20059;-61
2022/04/11 10:48:03;;;;;;;1.42;1.10;;;;;;;22.69;19.30;100343.91;10220239;28;20085;-63
2022/04/11 10:53:16;;;;;;;1.85;1.00;;;;;;;27.56;16.00;100328.19;10221203;28;20687;-61
2022/04/11 10:58:22;;;;;;;2.35;1.42;;;;;;;28.77;14.15;100316.78;10217682;28;20055;-61
2022/04/11 11:03:25;;;;;;;2.13;0.90;;;;;;;29.92;12.50;100311.22;10219241;28;20055;-63
2022/04/11 11:08:46;;;;;;;2.08;0.90;;;;;;;31.60;12.20;100312.72;10220272;28;20051;-61
2022/04/11 11:13:49;;;;;;;1.80;0.95;;;;;;;32.48;11.54;100294.88;10223332;28;20525;-61
2022/04/11 11:18:51;;;;;;;2.10;1.33;;;;;;;34.78;10.63;100278.63;10218363;28;20451;-61
2022/04/11 11:24:04;;;;;;;1.30;0.80;;;;;;;34.43;9.52;100285.13;10224196;28;20125;-62
2022/04/11 11:29:35;;;;;;;2.00;0.80;;;;;;;34.08;9.67;100276.66;10217634;28;20043;-62
2022/04/11 11:34:37;;;;;;;2.25;1.15;;;;;;;34.35;9.61;100250.63;10219398;28;20049;-61
2022/04/11 11:39:43;;;;;;;1.20;0.95;;;;;;;34.97;9.61;100269.69;10216304;28;20836;-62
2022/04/11 11:44:50;;;;;;;1.90;0.93;;;;;;;34.31;9.20;100268.88;10216540;28;20513;-61
2022/04/11 11:49:51;;;;;;;1.48;0.90;;;;;;;34.55;8.92;100260.75;10212631;28;20137;-61
2022/04/11 11:54:53;;;;;;;1.35;0.80;;;;;;;34.44;9.01;100254.44;10217525;28;20062;-62
2022/04/11 12:00:02;;;;;;;1.67;0.90;;;;;;;33.93;9.42;100260.09;10213067;28;21172;-63
2022/04/11 12:05:23;;;;;;;2.07;1.17;;;;;;;34.83;9.02;100244.59;10216572;28;20054;-61
2022/04/11 12:10:25;;;;;;;2.15;0.77;;;;;;;35.45;8.59;100236.69;10216113;28;20269;-61
2022/04/11 12:15:31;;;;;;;1.02;0.77;;;;;;;34.83;8.96;100234.38;10208326;28;20126;-61
2022/04/11 12:20:34;;;;;;;1.20;0.82;;;;;;;34.50;8.60;100238.66;10216274;28;20043;-61
2022/04/11 12:25:37;;;;;;;2.05;0.95;;;;;;;32.76;10.19;100213.72;10213145;28;20545;-62
2022/04/11 12:30:46;;;;;;;2.92;0.95;;;;;;;31.61;10.69;100198.84;10227177;28;20494;-61
2022/04/11 12:36:07;;;;;;;2.33;0.75;;;;;;;28.80;12.34;100201.25;10214136;28;20082;-60
2022/04/11 12:41:49;;;;;;;2.13;0.90;;;;;;;26.90;13.34;100180.56;10218083;28;20202;-60
2022/04/11 12:46:56;;;;;;;2.17;0.70;;;;;;;26.15;13.90;100184.47;10211020;28;20177;-60
2022/04/11 12:51:59;;;;;;;2.13;0.85;;;;;;;24.74;15.87;100176.66;10211671;28;20489;-60
2022/04/11 12:57:01;;;;;;;2.13;1.13;;;;;;;23.77;16.27;100161.94;10214328;28;20055;-61
2022/04/11 13:02:02;;;;;;;1.33;1.00;;;;;;;23.69;16.88;100148.59;10213063;28;20055;-61
2022/04/11 13:07:04;;;;;;;1.42;0.85;;;;;;;23.37;18.13;100144.88;10223696;28;20046;-61
2022/04/11 13:12:10;;;;;;;2.28;1.52;;;;;;;23.45;17.22;100161.81;10221443;28;20428;-62
2022/04/11 13:22:42;;;;;;;2.17;1.42;;;;;;;22.69;18.28;100157.53;10222496;28;20046;-62
2022/04/11 13:27:43;;;;;;;1.77;0.90;;;;;;;22.36;18.53;100141.19;10221385;28;20070;-61
2022/04/11 13:32:45;;;;;;;2.20;1.52;;;;;;;21.90;18.35;100129.06;10218511;28;20059;-61
2022/04/11 13:37:49;;;;;;;2.55;1.38;;;;;;;21.74;19.42;100124.84;10227008;28;24523;-60
2022/04/11 13:42:51;;;;;;;2.65;1.20;;;;;;;21.47;19.08;100113.81;10240398;28;20051;-60
2022/04/11 13:48:11;;;;;;;1.85;1.23;;;;;;;21.01;19.50;100114.31;10221938;28;20047;-61
2022/04/11 13:53:13;;;;;;;2.65;1.20;;;;;;;20.70;20.21;100118.16;10221266;28;20138;-60
2022/04/11 13:58:14;;;;;;;1.85;1.20;;;;;;;20.40;20.72;100112.88;10224518;28;20061;-60
2022/04/11 14:03:16;;;;;;;2.75;1.52;;;;;;;20.08;21.71;100098.75;10225340;28;20295;-63
2022/04/11 14:08:22;;;;;;;2.88;1.52;;;;;;;19.57;21.48;100074.41;10220017;28;20063;-60
2022/04/11 14:13:23;;;;;;;2.38;1.50;;;;;;;19.44;21.41;100080.44;10216422;28;20047;-61
2022/04/11 14:18:24;;;;;;;2.40;1.10;;;;;;;19.33;21.42;100037.75;10219476;28;20058;-60
2022/04/11 14:23:28;;;;;;;3.45;1.60;;;;;;;19.14;22.74;100058.84;10223766;28;20947;-61
2022/04/11 14:28:30;;;;;;;;;;;;;;;18.92;22.56;100057.88;10221746;28;20062;-61
2022/04/11 14:33:31;;;;;;;3.63;1.45;;;;;;;18.68;23.72;100040.88;10219212;28;19976;-61
2022/04/11 14:38:34;;;;;;;4.65;2.03;;;;;;;18.29;24.11;100044.53;10218188;28;20190;-61
2022/04/11 14:43:36;;;;;;;5.28;2.42;;;;;;;18.16;24.32;100036.22;10219117;28;20194;-61
2022/04/11 14:48:37;;;;;;;3.03;1.60;;;;;;;17.72;25.13;100009.84;10216284;28;20057;-62
2022/04/11 14:53:39;;;;;;;2.45;1.90;;;;;;;17.60;25.99;100021.00;10216136;28;20055;-61
2022/04/11 14:58:40;;;;;;;3.03;2.47;;;;;;;17.73;25.96;100024.97;10221552;28;20998;-62
2022/04/11 15:03:42;;;;;;;4.10;2.05;;;;;;;17.54;25.99;100016.31;10221960;28;20190;-61
2022/04/11 15:08:43;;;;;;;2.80;2.40;;;;;;;17.40;26.87;100012.50;10220351;28;20630;-62
2022/04/11 15:13:45;;;;;;;2.60;2.33;;;;;;;17.03;27.71;100010.44;10222800;28;20050;-62
2022/04/11 15:18:46;;;;;;;2.80;2.03;;;;;;;16.92;27.81;99999.03;10218542;28;20078;-60
2022/04/11 15:23:48;;;;;;;4.75;2.35;;;;;;;16.93;28.15;99995.34;10206512;28;20058;-61
2022/04/11 15:28:49;;;;;;;3.13;2.30;;;;;;;16.82;28.07;99992.97;10220511;28;20114;-60
2022/04/11 15:33:54;;;;;;;3.25;2.20;;;;;;;16.71;28.55;99982.53;10218399;28;20147;-62
2022/04/11 15:38:56;;;;;;;2.15;1.83;;;;;;;16.59;28.92;99988.28;10221087;28;20225;-60
2022/04/11 15:43:58;;;;;;;4.10;1.95;;;;;;;16.62;28.93;99987.13;10215175;28;20182;-60
2022/04/11 15:49:01;;;;;;;3.35;2.47;;;;;;;16.54;29.28;99966.47;10210109;28;20494;-59
2022/04/11 15:54:06;;;;;;;4.60;2.40;;;;;;;16.39;28.83;99965.44;10217418;28;20506;-60
2022/04/11 15:59:08;;;;;;;3.17;2.00;;;;;;;16.52;28.50;99981.91;10207837;28;20085;-62
2022/04/11 16:04:09;;;;;;;3.70;1.98;;;;;;;16.45;29.07;99970.16;10211866;28;20051;-60
2022/04/11 16:09:11;;;;;;;4.03;1.75;;;;;;;16.44;28.84;99979.25;10215734;28;20679;-61
2022/04/11 16:14:12;;;;;;;2.65;1.80;;;;;;;16.15;28.78;99942.94;10221060;28;20062;-61
2022/04/11 16:19:13;;;;;;;2.83;2.10;;;;;;;16.17;28.59;99951.69;10217783;28;20049;-61
2022/04/11 16:24:15;;;;;;;2.60;2.15;;;;;;;16.09;29.31;99957.06;10216741;28;20055;-60
2022/04/11 16:29:16;;;;;;;3.83;2.50;;;;;;;16.10;29.42;99956.06;10214213;28;20402;-61
2022/04/11 16:34:18;;;;;;;3.20;2.10;;;;;;;15.84;29.48;99922.13;10219466;28;20902;-61
2022/04/11 16:39:19;;;;;;;3.75;2.58;;;;;;;15.86;29.56;99920.13;10227643;28;20050;-61
2022/04/11 16:44:20;;;;;;;3.55;2.60;;;;;;;15.76;29.49;99937.34;10227262;28;20126;-61
2022/04/11 16:49:22;;;;;;;4.22;2.30;;;;;;;15.75;29.99;99952.63;10228189;28;20130;-60
2022/04/11 16:54:23;;;;;;;3.33;1.90;;;;;;;15.58;30.35;99929.44;10228819;28;20399;-63
2022/04/11 16:59:25;;;;;;;4.93;2.95;;;;;;;15.56;30.16;99948.38;10227033;28;20050;-62
2022/04/11 17:04:27;;;;;;;3.28;1.83;;;;;;;15.63;30.70;99951.25;10231835;28;20514;-63
2022/04/11 17:09:28;;;;;;;4.07;1.92;;;;;;;15.53;30.94;99944.16;10227097;28;20060;-62
2022/04/11 17:14:29;;;;;;;3.75;2.17;;;;;;;15.47;30.97;99926.06;10228200;28;20047;-61
2022/04/11 17:19:31;;;;;;;3.40;2.45;;;;;;;15.37;31.07;99944.13;10228417;28;20067;-60
2022/04/11 17:24:33;;;;;;;3.40;2.40;;;;;;;15.26;31.44;99925.66;10226036;28;20540;-59
2022/04/11 17:29:34;;;;;;;3.13;2.25;;;;;;;15.19;31.48;99939.72;10227961;28;20055;-62
2022/04/11 17:34:36;;;;;;;5.25;2.78;;;;;;;15.16;32.02;99956.13;10224592;28;20057;-62
2022/04/11 17:39:37;;;;;;;3.42;2.85;;;;;;;15.02;32.39;99952.19;10224277;28;20047;-62
2022/04/11 17:44:39;;;;;;;4.50;2.80;;;;;;;14.99;32.58;99957.03;10223412;28;20081;-62
2022/04/11 17:49:40;;;;;;;4.53;2.40;;;;;;;14.92;32.91;99966.69;10223213;28;20058;-62
2022/04/11 17:54:41;;;;;;;3.08;2.17;;;;;;;14.77;33.12;99948.53;10223816;28;20640;-62
2022/04/11 17:59:43;;;;;;;5.80;3.40;;;;;;;14.63;33.38;99941.06;10222465;28;20109;-62
2022/04/11 18:04:44;;;;;;;3.45;2.95;;;;;;;14.65;33.58;99960.50;10221614;28;20702;-62
2022/04/11 18:09:45;;;;;;;3.92;3.28;;;;;;;14.47;34.03;99942.63;10220681;28;20166;-61
2022/04/11 18:14:47;;;;;;;4.30;3.22;;;;;;;14.40;34.65;99957.63;10221560;28;20545;-61
2022/04/11 18:19:48;;;;;;;5.32;3.60;;;;;;;14.25;34.72;99949.31;10223379;28;20135;-62
2022/04/11 18:24:50;;;;;;;5.30;3.05;;;;;;;14.31;34.86;99966.59;10220870;28;20055;-61
2022/04/11 18:35:11;;;;;;;7.45;3.97;;;;;;;14.15;35.34;99965.44;10219021;28;20057;-61
2022/04/11 18:40:13;;;;;;;5.57;3.58;;;;;;;14.08;35.48;99963.53;10223628;28;20586;-62
2022/04/11 18:45:15;;;;;;;5.05;3.67;;;;;;;14.00;35.77;99972.34;10220057;28;20065;-63
2022/04/11 18:50:16;;;;;;;6.18;4.30;;;;;;;13.97;36.03;99978.00;10219244;28;20057;-63
2022/04/11 18:55:17;;;;;;;5.30;3.50;;;;;;;13.90;36.16;99979.59;10219877;28;20051;-61
2022/04/11 19:00:19;;;;;;;5.05;3.47;;;;;;;13.76;36.49;99970.25;10221081;28;20069;-64
2022/04/11 19:05:20;;;;;;;3.70;2.95;;;;;;;13.78;36.77;99989.66;10221637;28;20117;-63
2022/04/11 19:10:22;;;;;;;5.25;3.70;;;;;;;13.70;36.93;99987.75;10220891;28;20051;-61
2022/04/11 19:15:23;;;;;;;6.30;3.70;;;;;;;13.56;37.05;99989.09;10219159;28;20070;-62
2022/04/11 19:20:26;;;;;;;4.22;3.22;;;;;;;13.60;37.17;99998.50;10220052;28;20509;-61
2022/04/11 19:25:27;;;;;;;4.78;4.25;;;;;;;13.56;37.81;99998.97;10224260;28;20050;-64
2022/04/11 19:30:29;;;;;;;4.47;3.92;;;;;;;13.51;37.55;99993.19;10219118;28;20075;-62
2022/04/11 19:35:33;;;;;;;6.68;4.13;;;;;;;13.49;38.13;100003.22;10230872;28;20134;-62
2022/04/11 19:40:34;;;;;;;5.28;4.78;;;;;;;13.41;38.33;100004.78;10246924;28;20059;-61
2022/04/11 19:45:37;;;;;;;8.57;6.05;;;;;;;13.18;38.71;99987.41;10242415;28;20047;-62
2022/04/11 19:50:38;;;;;;;5.88;5.25;;;;;;;13.23;38.93;100006.53;10225124;28;20050;-61
2022/04/11 19:55:41;;;;;;;7.30;6.32;;;;;;;13.11;39.00;100002.38;10218690;28;20050;-63
2022/04/11 20:00:43;;;;;;;6.63;6.00;;;;;;;13.07;39.16;100007.16;10219552;28;20057;-62
2022/04/11 20:05:46;;;;;;;8.70;6.72;;;;;;;13.02;39.00;100015.59;10217798;28;20055;-61
2022/04/11 20:10:47;;;;;;;10.65;9.65;;;;;;;12.95;39.09;100006.47;10213039;28;20054;-61
2022/04/11 20:15:48;;;;;;;10.15;8.98;;;;;;;12.90;39.52;100011.41;10214045;28;20058;-63
2022/04/11 20:20:50;;;;;;;10.75;8.40;;;;;;;12.63;39.24;99970.28;10214549;28;20129;-63
2022/04/11 20:25:51;;;;;;;9.75;7.55;;;;;;;12.79;39.61;100016.91;10215590;28;20634;-63
2022/04/11 20:30:53;;;;;;;7.53;6.15;;;;;;;12.70;39.59;100016.81;10214439;28;20061;-61
2022/04/11 20:35:54;;;;;;;7.30;6.20;;;;;;;12.70;39.55;100021.28;10215374;28;20062;-62
2022/04/11 20:40:56;;;;;;;6.55;5.30;;;;;;;12.63;39.75;100018.34;10213590;28;20055;-62
2022/04/11 20:45:57;;;;;;;6.40;5.38;;;;;;;12.56;40.22;100014.56;10216401;28;20055;-62
2022/04/11 20:51:03;;;;;;;7.82;5.63;;;;;;;12.50;40.14;100015.13;10217435;28;20055;-61
2022/04/11 20:56:11;;;;;;;6.35;4.57;;;;;;;12.47;40.50;100020.75;10214387;28;20106;-61
2022/04/11 21:01:13;;;;;;;4.55;4.07;;;;;;;12.36;40.63;100014.56;10212276;28;20051;-64
2022/04/11 21:06:16;;;;;;;7.60;5.20;;;;;;;12.30;41.22;100012.47;10212661;28;20070;-62
2022/04/11 21:11:17;;;;;;;6.05;3.88;;;;;;;12.25;41.41;100001.38;10213582;28;20072;-63
2022/04/11 21:16:18;;;;;;;5.55;3.92;;;;;;;12.25;41.43;100006.72;10210196;28;20053;-62
2022/04/11 21:21:20;;;;;;;4.45;3.50;;;;;;;12.18;41.75;100002.94;10212143;28;20437;-63
2022/04/11 21:26:21;;;;;;;5.07;4.57;;;;;;;12.14;41.83;100005.00;10237529;28;20133;-62
2022/04/11 21:31:23;;;;;;;6.20;3.85;;;;;;;12.11;42.19;100009.81;10241204;28;20043;-62
2022/04/11 21:36:24;;;;;;;4.07;2.90;;;;;;;11.95;42.39;100005.00;10239999;28;20051;-66
2022/04/11 21:41:25;;;;;;;3.85;3.45;;;;;;;11.89;42.60;100001.06;10240604;28;20043;-64
2022/04/11 21:46:27;;;;;;;4.15;3.10;;;;;;;11.87;42.64;99988.81;10242714;28;20141;-63
2022/04/11 21:51:29;;;;;;;3.38;2.97;;;;;;;11.85;42.76;99986.31;10240570;28;20610;-64
2022/04/11 21:56:30;;;;;;;3.40;3.10;;;;;;;11.84;42.83;100003.28;10237159;28;20149;-63
2022/04/11 22:01:34;;;;;;;3.30;3.00;;;;;;;11.79;42.94;99993.03;10237598;28;20074;-62
2022/04/11 22:06:36;;;;;;;5.13;3.33;;;;;;;11.75;43.05;100004.94;10235754;28;20062;-64
2022/04/11 22:11:39;;;;;;;4.97;3.55;;;;;;;11.68;43.29;100002.00;10235743;28;20432;-63
2022/04/11 22:16:40;;;;;;;5.22;3.63;;;;;;;11.59;43.80;99988.63;10236151;28;20057;-64
2022/04/11 22:21:42;;;;;;;3.35;3.00;;;;;;;11.49;43.49;99984.09;10232766;28;20050;-63
2022/04/11 22:26:43;;;;;;;5.63;3.53;;;;;;;11.54;43.68;100001.53;10241565;28;20149;-62
2022/04/11 22:31:44;;;;;;;4.30;3.35;;;;;;;11.43;43.94;99986.50;10235314;28;20059;-63
2022/04/11 22:36:47;;;;;;;4.72;3.33;;;;;;;11.51;43.94;99991.97;10236380;28;20058;-62
2022/04/11 22:41:48;;;;;;;3.53;2.70;;;;;;;11.47;44.05;99991.41;10238311;28;20552;-63
2022/04/11 22:46:49;;;;;;;2.85;2.55;;;;;;;11.43;44.15;99994.47;10237489;28;20514;-64
2022/04/11 22:51:51;;;;;;;4.72;2.50;;;;;;;11.31;43.91;99975.91;10235048;28;20047;-63
2022/04/11 22:56:52;;;;;;;4.20;2.58;;;;;;;11.35;44.15;99978.31;10243422;28;20073;-62
2022/04/11 23:01:53;;;;;;;5.05;3.47;;;;;;;11.29;43.97;99977.06;10240656;28;20599;-64
2022/04/11 23:06:55;;;;;;;2.70;2.50;;;;;;;11.23;43.73;99957.13;10235394;28;20138;-63
2022/04/11 23:11:57;;;;;;;4.15;2.50;;;;;;;11.22;43.93;99955.41;10231910;28;20578;-63
2022/04/11 23:16:58;;;;;;;4.43;2.90;;;;;;;11.28;43.70;99970.88;10236847;28;20091;-63
2022/04/11 23:22:00;;;;;;;2.45;2.25;;;;;;;11.26;44.13;99962.16;10235338;28;20042;-64
2022/04/11 23:27:02;;;;;;;2.08;1.88;;;;;;;11.23;44.35;99961.56;10238836;28;20162;-64
2022/04/11 23:32:03;;;;;;;3.42;2.50;;;;;;;11.13;44.20;99938.41;10247702;28;20063;-64